Lowell, Arkansas
Current Conditions -  °F | °C
As of 6:48 PM on Friday 19 Dec 2014 (Local Time) from KASG Reporting Station
Haze Haze  
Wind Chill: 41°   Ceiling: 600
Heat Index: 41°   Visibility: 4mi
Dew Point: 39°   Wind: 0mph
Humidity: 93%   Direction: NA
Pressure: 30.2"   Gusts: NA
Location:  36.26°N, 94.13°W
Report Text: KASG 200048Z 00000KT 4SM BR OVC006 05/04 A3020
Loading
Personal Weather Stations






























Interactive Weather Map New forecast layout! Learn more

10-Day Weather Forecast

Advertisements
Track Severe Weather on mobile